Time;durP1;ratioP1;P1;durP2;ratioP2;P2;SDS_P1;SDS_P2;PMS_P1;PMS_P2;Temp;Humidity;BMP_temperature;BMP_pressure;BME280_temperature;BME280_humidity;BME280_pressure;Samples;Min_cycle;Max_cycle;Signal;HPM_P1;HPM_P2
2023/10/27 00:00:57;;;;;;;11.88;2.67;;;9.10;99.90;;;;;;5009231;28;20109;-65
2023/10/27 00:03:24;;;;;;;6.05;2.63;;;9.20;99.90;;;;;;4998913;28;20047;-66
2023/10/27 00:05:51;;;;;;;6.22;2.60;;;9.30;99.90;;;;;;5000082;28;20046;-66
2023/10/27 00:08:18;;;;;;;7.60;2.42;;;9.30;99.90;;;;;;5004110;28;20053;-65
2023/10/27 00:10:45;;;;;;;9.02;2.50;;;9.40;99.90;;;;;;5011250;28;20279;-65
2023/10/27 00:13:11;;;;;;;4.05;2.50;;;9.50;99.90;;;;;;5009613;28;20073;-66
2023/10/27 00:15:38;;;;;;;7.60;2.22;;;9.50;99.90;;;;;;5022415;28;20042;-67
2023/10/27 00:18:05;;;;;;;5.05;2.05;;;9.50;99.90;;;;;;5028045;28;20451;-66
2023/10/27 00:20:32;;;;;;;4.72;2.40;;;9.50;99.90;;;;;;5035155;28;20069;-66
2023/10/27 00:22:59;;;;;;;7.35;2.80;;;9.60;99.90;;;;;;5034224;28;20045;-65
2023/10/27 00:25:25;;;;;;;9.35;3.53;;;9.60;99.90;;;;;;5028631;28;20037;-67
2023/10/27 00:27:52;;;;;;;12.68;3.28;;;9.70;99.90;;;;;;5021472;28;20113;-65
2023/10/27 00:30:19;;;;;;;6.53;2.75;;;9.60;99.90;;;;;;5034831;28;20045;-66
2023/10/27 00:32:47;;;;;;;3.92;1.75;;;9.70;99.90;;;;;;5036392;28;20056;-65
2023/10/27 00:35:14;;;;;;;5.60;2.10;;;9.70;99.90;;;;;;5016060;28;20045;-67
2023/10/27 00:37:41;;;;;;;8.25;2.33;;;9.70;99.90;;;;;;5019748;28;20049;-67
2023/10/27 00:40:08;;;;;;;7.22;2.03;;;9.70;99.90;;;;;;5042815;28;20099;-67
2023/10/27 00:42:35;;;;;;;6.20;2.38;;;9.70;99.90;;;;;;5024712;28;20111;-67
2023/10/27 00:45:03;;;;;;;8.63;2.20;;;9.70;99.90;;;;;;5030435;28;20042;-67
2023/10/27 00:47:30;;;;;;;11.23;2.20;;;9.60;99.90;;;;;;5037645;28;20060;-67
2023/10/27 00:49:57;;;;;;;7.70;2.15;;;9.60;99.90;;;;;;5009957;28;20041;-67
2023/10/27 00:52:24;;;;;;;9.45;2.40;;;9.50;99.90;;;;;;5002338;28;20058;-67
2023/10/27 00:54:51;;;;;;;6.93;2.40;;;9.50;99.90;;;;;;5020716;28;20037;-66
2023/10/27 00:57:18;;;;;;;7.80;2.45;;;9.50;99.90;;;;;;5010117;28;20053;-66
2023/10/27 00:59:46;;;;;;;4.78;2.00;;;9.50;99.90;;;;;;5009362;28;20488;-67
2023/10/27 01:02:16;;;;;;;5.10;1.95;;;9.40;99.90;;;;;;5009790;28;20054;-66
2023/10/27 01:04:43;;;;;;;8.82;2.22;;;9.40;99.90;;;;;;5026736;28;20085;-66
2023/10/27 01:07:10;;;;;;;8.32;2.10;;;9.40;99.90;;;;;;5025835;28;20118;-66
2023/10/27 01:09:37;;;;;;;7.07;2.30;;;9.30;99.90;;;;;;5026947;28;20092;-65
2023/10/27 01:12:04;;;;;;;10.18;2.15;;;9.40;99.90;;;;;;5021440;28;20045;-65
2023/10/27 01:14:30;;;;;;;5.45;2.22;;;9.40;99.90;;;;;;5012442;28;20050;-65
2023/10/27 01:16:57;;;;;;;5.50;2.25;;;9.30;99.90;;;;;;5025348;28;20068;-64
2023/10/27 01:19:24;;;;;;;5.05;1.73;;;9.30;99.90;;;;;;5027285;28;20049;-65
2023/10/27 01:21:51;;;;;;;7.72;2.78;;;9.20;99.90;;;;;;5026466;28;20077;-65
2023/10/27 01:24:18;;;;;;;9.40;2.42;;;9.30;99.90;;;;;;5019701;28;20061;-65
2023/10/27 01:26:45;;;;;;;8.85;2.22;;;9.20;99.90;;;;;;5026481;28;20123;-66
2023/10/27 01:29:12;;;;;;;8.23;3.00;;;9.10;99.90;;;;;;5027581;28;20052;-65
2023/10/27 01:31:39;;;;;;;4.93;2.38;;;9.20;99.90;;;;;;5026209;28;20045;-66
2023/10/27 01:34:05;;;;;;;11.15;3.80;;;9.20;99.90;;;;;;5009080;28;20049;-65
2023/10/27 01:36:32;;;;;;;10.05;2.22;;;9.20;99.90;;;;;;5026273;28;20088;-65
2023/10/27 01:38:59;;;;;;;5.30;2.33;;;9.20;99.90;;;;;;5026676;28;20050;-66
2023/10/27 01:41:26;;;;;;;3.50;1.70;;;9.20;99.90;;;;;;5025984;28;20037;-65
2023/10/27 01:43:52;;;;;;;4.63;2.20;;;9.10;99.90;;;;;;5026949;28;20096;-65
2023/10/27 01:46:19;;;;;;;5.57;2.03;;;9.10;99.90;;;;;;5026756;28;20099;-64
2023/10/27 01:48:46;;;;;;;5.40;2.10;;;9.00;99.90;;;;;;5028832;28;20133;-65
2023/10/27 01:51:13;;;;;;;11.80;2.97;;;9.10;99.90;;;;;;4663507;28;10000193;-65
2023/10/27 01:53:40;;;;;;;8.48;1.90;;;9.10;99.90;;;;;;5027556;28;20045;-66
2023/10/27 01:56:07;;;;;;;8.15;2.53;;;9.00;99.90;;;;;;5026799;28;20124;-65
2023/10/27 01:58:34;;;;;;;11.40;2.70;;;9.00;99.90;;;;;;5029185;28;20049;-65
2023/10/27 02:01:00;;;;;;;11.43;2.35;;;8.90;99.90;;;;;;5029081;28;20459;-64
2023/10/27 02:03:27;;;;;;;14.75;3.33;;;9.00;99.90;;;;;;5028083;28;20050;-65
2023/10/27 02:05:54;;;;;;;16.15;2.60;;;9.00;99.90;;;;;;5030024;28;20056;-65
2023/10/27 02:08:21;;;;;;;5.90;2.00;;;8.90;99.90;;;;;;5029463;28;20575;-65
2023/10/27 02:10:48;;;;;;;7.30;2.13;;;9.00;99.90;;;;;;5029570;28;20526;-65
2023/10/27 02:13:15;;;;;;;9.13;2.67;;;8.90;99.90;;;;;;5029197;28;20464;-65
2023/10/27 02:15:41;;;;;;;6.15;1.88;;;8.90;99.90;;;;;;5029729;28;20524;-66
2023/10/27 02:18:08;;;;;;;8.05;1.98;;;8.90;99.90;;;;;;5012099;28;20046;-65
2023/10/27 02:20:35;;;;;;;5.10;2.00;;;8.80;99.90;;;;;;5030549;28;20112;-64
2023/10/27 02:23:02;;;;;;;5.18;1.58;;;8.70;99.90;;;;;;5030084;28;20045;-64
2023/10/27 02:25:29;;;;;;;8.52;2.10;;;8.70;99.90;;;;;;5029199;28;20076;-65
2023/10/27 02:27:56;;;;;;;7.15;1.75;;;8.70;99.90;;;;;;5012865;28;20041;-64
2023/10/27 02:30:22;;;;;;;7.22;1.83;;;8.70;99.90;;;;;;5012125;28;20049;-67
2023/10/27 02:32:49;;;;;;;11.00;2.33;;;8.70;99.90;;;;;;5012019;28;20053;-65
2023/10/27 02:35:16;;;;;;;6.38;2.30;;;8.70;99.90;;;;;;5029530;28;20416;-65
2023/10/27 02:37:43;;;;;;;4.53;1.92;;;8.60;99.90;;;;;;5011799;28;20120;-65
2023/10/27 02:40:10;;;;;;;8.43;2.08;;;8.60;99.90;;;;;;5029257;28;20103;-65
2023/10/27 02:42:38;;;;;;;7.75;2.22;;;8.60;99.90;;;;;;5028870;28;20519;-64
2023/10/27 02:45:07;;;;;;;11.10;2.00;;;8.60;99.90;;;;;;5028400;28;20052;-66
2023/10/27 02:47:34;;;;;;;6.78;1.63;;;8.60;99.90;;;;;;5029764;28;20398;-65
2023/10/27 02:50:01;;;;;;;5.57;1.98;;;8.60;99.90;;;;;;5029051;28;20050;-66
2023/10/27 02:52:28;;;;;;;5.22;1.67;;;8.60;99.90;;;;;;5029061;28;20453;-67
2023/10/27 02:54:55;;;;;;;8.98;2.17;;;8.50;99.90;;;;;;5010827;28;20049;-67
2023/10/27 02:57:22;;;;;;;8.98;1.42;;;8.50;99.90;;;;;;5009471;28;20056;-66
2023/10/27 02:59:48;;;;;;;3.00;1.63;;;8.50;99.90;;;;;;5022717;28;20049;-65
2023/10/27 03:02:15;;;;;;;5.50;1.70;;;8.50;99.90;;;;;;5028733;28;20099;-64
2023/10/27 03:04:42;;;;;;;9.63;2.22;;;8.50;99.90;;;;;;5029149;28;20052;-64
2023/10/27 03:07:09;;;;;;;9.90;2.10;;;8.50;99.90;;;;;;5029746;28;20049;-65
2023/10/27 03:09:36;;;;;;;4.05;1.48;;;8.50;99.90;;;;;;5029825;28;20103;-65
2023/10/27 03:12:03;;;;;;;3.75;1.65;;;8.50;99.90;;;;;;5016166;28;20049;-66
2023/10/27 03:14:29;;;;;;;4.25;1.88;;;8.40;99.90;;;;;;5035353;28;20076;-64
2023/10/27 03:16:56;;;;;;;8.38;1.95;;;8.40;99.90;;;;;;5029722;28;20073;-67
2023/10/27 03:19:23;;;;;;;6.35;1.95;;;8.40;99.90;;;;;;5029988;28;20104;-65
2023/10/27 03:21:50;;;;;;;2.92;1.30;;;8.40;99.90;;;;;;5028060;28;20083;-65
2023/10/27 03:24:16;;;;;;;9.07;1.77;;;8.30;99.90;;;;;;5014089;28;20073;-66
2023/10/27 03:26:43;;;;;;;4.43;1.38;;;8.30;99.90;;;;;;5012205;28;20095;-66
2023/10/27 03:29:10;;;;;;;4.07;1.90;;;8.30;99.90;;;;;;5029748;28;20080;-66
2023/10/27 03:31:37;;;;;;;11.23;1.58;;;8.30;99.90;;;;;;5028832;28;20053;-66
2023/10/27 03:34:04;;;;;;;6.32;1.67;;;8.40;99.90;;;;;;5028623;28;20480;-66
2023/10/27 03:36:31;;;;;;;1.98;1.17;;;8.40;99.90;;;;;;5028231;28;20095;-67
2023/10/27 03:38:57;;;;;;;3.63;1.80;;;8.40;99.90;;;;;;5029401;28;20524;-69
2023/10/27 03:41:24;;;;;;;6.53;2.15;;;8.40;99.90;;;;;;5011480;28;20047;-66
2023/10/27 03:43:52;;;;;;;3.90;1.67;;;8.40;99.90;;;;;;5028944;28;20053;-66
2023/10/27 03:46:18;;;;;;;4.43;1.67;;;8.50;99.90;;;;;;5027990;28;20053;-66
2023/10/27 03:48:47;;;;;;;4.35;1.27;;;8.40;99.90;;;;;;5028491;28;20081;-66
2023/10/27 03:51:15;;;;;;;5.53;1.48;;;8.40;99.90;;;;;;5027215;28;20051;-66
2023/10/27 03:53:42;;;;;;;7.10;1.63;;;8.40;99.90;;;;;;5018941;28;20177;-66
2023/10/27 03:56:09;;;;;;;5.47;1.98;;;8.50;99.90;;;;;;5020149;28;20056;-66
2023/10/27 03:58:35;;;;;;;7.75;2.38;;;8.50;99.90;;;;;;5028234;28;20049;-66
2023/10/27 04:01:13;;;;;;;8.05;1.92;;;8.60;99.90;;;;;;5027526;28;20037;-67
2023/10/27 04:03:40;;;;;;;4.18;1.40;;;8.60;99.90;;;;;;5027799;28;20053;-67
2023/10/27 04:06:07;;;;;;;5.10;1.70;;;8.70;99.90;;;;;;5025080;28;20048;-66
2023/10/27 04:08:34;;;;;;;5.00;1.45;;;8.70;99.90;;;;;;5027547;28;20371;-66
2023/10/27 04:11:01;;;;;;;3.90;1.50;;;8.70;99.90;;;;;;5027269;28;20127;-66
2023/10/27 04:13:27;;;;;;;4.20;1.48;;;8.70;99.90;;;;;;5026705;28;20136;-66
2023/10/27 04:15:54;;;;;;;3.33;1.17;;;8.70;99.90;;;;;;5029382;28;20119;-67
2023/10/27 04:18:21;;;;;;;4.43;1.50;;;8.70;99.90;;;;;;5027423;28;20053;-66
2023/10/27 04:20:48;;;;;;;7.35;1.80;;;8.80;99.90;;;;;;5028119;28;20068;-67
2023/10/27 04:23:15;;;;;;;6.18;1.58;;;8.70;99.90;;;;;;5009331;28;20119;-66
2023/10/27 04:25:41;;;;;;;8.82;2.13;;;8.80;99.90;;;;;;5028060;28;20049;-66
2023/10/27 04:28:08;;;;;;;5.35;2.28;;;8.80;99.90;;;;;;5027080;28;20053;-66
2023/10/27 04:30:36;;;;;;;11.82;1.98;;;8.90;99.90;;;;;;5009860;28;20457;-66
2023/10/27 04:33:05;;;;;;;5.47;2.15;;;8.90;99.90;;;;;;5026735;28;20045;-66
2023/10/27 04:35:33;;;;;;;5.55;1.77;;;8.90;99.90;;;;;;5028627;28;20083;-66
2023/10/27 04:38:00;;;;;;;5.63;1.75;;;8.80;99.90;;;;;;5027016;28;20379;-66
2023/10/27 04:40:28;;;;;;;7.45;1.90;;;8.80;99.90;;;;;;5009651;28;20053;-66
2023/10/27 04:43:00;;;;;;;6.95;1.80;;;8.90;99.90;;;;;;5009688;28;20052;-66
2023/10/27 04:45:27;;;;;;;6.35;2.05;;;8.90;99.90;;;;;;5010016;28;20054;-66
2023/10/27 04:47:54;;;;;;;10.52;2.10;;;8.90;99.90;;;;;;5011184;28;20038;-67
2023/10/27 04:50:22;;;;;;;7.05;1.52;;;8.90;99.90;;;;;;5027854;28;20073;-66
2023/10/27 04:52:48;;;;;;;6.95;2.40;;;8.80;99.90;;;;;;5010079;28;20095;-65
2023/10/27 04:55:15;;;;;;;6.93;1.83;;;8.90;99.90;;;;;;5028250;28;20214;-65
2023/10/27 04:57:42;;;;;;;5.15;1.40;;;8.90;99.90;;;;;;5027280;28;20103;-65
2023/10/27 05:00:09;;;;;;;6.47;2.22;;;8.80;99.90;;;;;;5018346;28;20075;-65
2023/10/27 05:02:36;;;;;;;5.38;1.75;;;8.80;99.90;;;;;;5010860;28;20062;-66
2023/10/27 05:05:04;;;;;;;8.57;1.95;;;8.80;99.90;;;;;;5027123;28;20034;-65
2023/10/27 05:07:30;;;;;;;5.97;1.80;;;8.80;99.90;;;;;;5008711;28;20689;-65
2023/10/27 05:09:57;;;;;;;6.53;2.30;;;8.80;99.90;;;;;;5026968;28;20069;-65
2023/10/27 05:12:25;;;;;;;7.13;2.53;;;8.80;99.90;;;;;;5025798;28;20056;-65
2023/10/27 05:14:52;;;;;;;7.38;1.83;;;8.80;99.90;;;;;;5009565;28;20050;-65
2023/10/27 05:17:18;;;;;;;8.18;3.42;;;8.80;99.90;;;;;;5026904;28;20501;-65
2023/10/27 05:19:45;;;;;;;5.10;2.83;;;8.90;99.90;;;;;;5026883;28;20057;-66
2023/10/27 05:22:13;;;;;;;9.82;2.50;;;8.80;99.90;;;;;;5029349;28;20045;-65
2023/10/27 05:24:40;;;;;;;7.03;2.00;;;8.80;99.90;;;;;;5022331;28;20049;-66
2023/10/27 05:27:07;;;;;;;9.55;2.67;;;8.80;99.90;;;;;;5028584;28;20049;-65
2023/10/27 05:29:34;;;;;;;3.95;1.73;;;8.90;99.90;;;;;;5013434;28;20053;-65
2023/10/27 05:32:01;;;;;;;9.05;3.33;;;8.90;99.90;;;;;;5030579;28;20048;-66
2023/10/27 05:34:28;;;;;;;5.90;1.85;;;8.90;99.90;;;;;;5030275;28;20049;-66
2023/10/27 05:36:58;;;;;;;11.43;2.50;;;8.90;99.90;;;;;;5030905;28;20484;-66
2023/10/27 05:39:26;;;;;;;10.32;2.28;;;8.90;99.90;;;;;;5030743;28;20052;-66
2023/10/27 05:41:53;;;;;;;8.80;2.50;;;9.00;99.90;;;;;;5036215;28;20056;-65
2023/10/27 05:44:20;;;;;;;4.82;2.30;;;9.00;99.90;;;;;;5022896;28;20045;-64
2023/10/27 05:46:47;;;;;;;8.95;3.60;;;9.00;99.90;;;;;;5033994;28;20555;-64
2023/10/27 05:49:14;;;;;;;13.70;2.65;;;9.10;99.90;;;;;;5030493;28;20088;-66
2023/10/27 05:51:40;;;;;;;4.72;2.13;;;9.10;99.90;;;;;;5030134;28;20056;-66
2023/10/27 05:54:07;;;;;;;4.32;2.00;;;9.20;99.90;;;;;;5030092;28;20419;-66
2023/10/27 05:56:34;;;;;;;5.80;2.10;;;9.20;99.90;;;;;;5030722;28;20357;-66
2023/10/27 05:59:01;;;;;;;6.15;2.40;;;9.30;99.90;;;;;;5013039;28;20045;-66
2023/10/27 06:01:28;;;;;;;12.55;2.55;;;9.30;99.90;;;;;;5032345;28;20052;-66
2023/10/27 06:03:57;;;;;;;6.63;2.33;;;9.30;99.90;;;;;;5032484;28;20057;-65
2023/10/27 06:06:25;;;;;;;3.13;1.80;;;9.30;99.90;;;;;;5035568;28;20412;-65
2023/10/27 06:08:52;;;;;;;10.73;2.47;;;9.30;99.90;;;;;;5035247;28;20117;-65
2023/10/27 06:11:19;;;;;;;8.23;2.45;;;9.30;99.90;;;;;;5035298;28;20463;-65
2023/10/27 06:13:46;;;;;;;9.07;2.80;;;9.30;99.90;;;;;;5035719;28;20049;-64
2023/10/27 06:16:12;;;;;;;8.00;2.47;;;9.30;99.90;;;;;;5032887;28;20587;-65
2023/10/27 06:18:39;;;;;;;8.25;2.55;;;9.30;99.90;;;;;;5030160;28;20045;-65
2023/10/27 06:21:06;;;;;;;9.68;2.47;;;9.30;99.90;;;;;;5011544;28;20285;-65
2023/10/27 06:23:33;;;;;;;12.27;2.33;;;9.40;99.90;;;;;;5012144;28;20119;-65
2023/10/27 06:26:00;;;;;;;8.13;1.92;;;9.30;99.90;;;;;;5030004;28;20864;-65
2023/10/27 06:28:27;;;;;;;7.85;2.45;;;9.40;99.90;;;;;;5030042;28;20504;-65
2023/10/27 06:30:54;;;;;;;11.40;2.78;;;9.40;99.90;;;;;;5012281;28;20489;-65
2023/10/27 06:33:22;;;;;;;9.15;3.42;;;9.30;99.90;;;;;;5029898;28;20132;-65
2023/10/27 06:35:49;;;;;;;8.27;3.80;;;9.40;99.90;;;;;;5012070;28;20068;-65
2023/10/27 06:38:16;;;;;;;6.20;2.30;;;9.40;99.90;;;;;;5029249;28;20061;-65
2023/10/27 06:40:43;;;;;;;13.43;3.20;;;9.40;99.90;;;;;;5029039;28;20492;-64
2023/10/27 06:43:09;;;;;;;4.72;2.38;;;9.40;99.90;;;;;;5029187;28;20057;-66
2023/10/27 06:45:36;;;;;;;6.15;3.03;;;9.40;99.90;;;;;;5029388;28;20065;-65
2023/10/27 06:48:03;;;;;;;8.93;2.10;;;9.40;99.90;;;;;;5029530;28;20103;-65
2023/10/27 06:50:30;;;;;;;7.53;2.65;;;9.40;99.90;;;;;;5029641;28;20061;-62
2023/10/27 06:52:57;;;;;;;8.88;3.47;;;9.40;99.90;;;;;;5029055;28;20054;-63
2023/10/27 06:55:26;;;;;;;7.10;2.33;;;9.40;99.90;;;;;;5029336;28;20417;-64
2023/10/27 06:57:53;;;;;;;6.65;2.70;;;9.30;99.90;;;;;;5028289;28;20123;-64
2023/10/27 07:00:20;;;;;;;5.65;2.15;;;9.30;99.90;;;;;;5029471;28;20103;-64
2023/10/27 07:02:47;;;;;;;9.10;2.58;;;9.30;99.90;;;;;;5016187;28;20045;-64
2023/10/27 07:05:23;;;;;;;8.50;2.25;;;9.30;99.90;;;;;;5046573;28;20139;-64
2023/10/27 07:07:51;;;;;;;11.52;3.05;;;9.30;99.90;;;;;;5019214;28;20075;-64
2023/10/27 07:10:18;;;;;;;9.70;3.08;;;9.40;99.90;;;;;;5020953;28;20053;-64
2023/10/27 07:12:45;;;;;;;8.07;3.03;;;9.40;99.90;;;;;;5030158;28;20060;-64
2023/10/27 07:15:13;;;;;;;11.82;3.22;;;9.50;99.90;;;;;;5024168;28;20421;-64
2023/10/27 07:17:41;;;;;;;16.27;4.28;;;9.50;99.90;;;;;;5019785;28;20046;-67
2023/10/27 07:20:08;;;;;;;12.63;3.35;;;9.60;99.90;;;;;;5023736;28;20057;-64
2023/10/27 07:22:36;;;;;;;10.10;3.00;;;9.60;99.90;;;;;;5035498;28;20107;-63
2023/10/27 07:25:04;;;;;;;6.50;2.60;;;9.50;99.90;;;;;;5025870;28;20048;-64
2023/10/27 07:27:30;;;;;;;8.48;3.22;;;9.60;99.90;;;;;;5029600;28;20079;-63
2023/10/27 07:29:57;;;;;;;9.65;3.60;;;9.60;99.90;;;;;;5026678;28;20075;-63
2023/10/27 07:32:24;;;;;;;10.32;3.40;;;9.70;99.90;;;;;;5024479;28;20052;-65
2023/10/27 07:34:51;;;;;;;7.68;3.15;;;9.70;99.90;;;;;;5027406;28;20049;-65
2023/10/27 07:37:20;;;;;;;14.27;4.93;;;9.80;99.90;;;;;;5027741;28;20049;-64
2023/10/27 07:39:47;;;;;;;12.57;3.40;;;9.80;99.90;;;;;;5027962;28;20072;-64
2023/10/27 07:42:14;;;;;;;7.30;3.38;;;9.90;99.90;;;;;;5033915;28;20564;-64
2023/10/27 07:44:41;;;;;;;8.43;2.70;;;9.90;99.90;;;;;;5031016;28;20514;-65
2023/10/27 07:47:08;;;;;;;6.03;2.75;;;10.00;99.90;;;;;;5008346;28;20054;-65
2023/10/27 07:49:35;;;;;;;9.90;3.42;;;10.10;99.90;;;;;;4986923;28;20061;-64
2023/10/27 07:52:03;;;;;;;11.57;4.60;;;10.10;99.90;;;;;;5041355;28;20051;-64
2023/10/27 07:54:31;;;;;;;6.93;3.92;;;10.20;99.90;;;;;;5034467;28;20416;-65
2023/10/27 07:56:59;;;;;;;10.90;4.07;;;10.20;99.90;;;;;;5033508;28;20049;-65
2023/10/27 07:59:29;;;;;;;10.48;3.78;;;10.30;99.90;;;;;;5029068;28;20045;-65
2023/10/27 08:01:59;;;;;;;9.57;3.60;;;10.40;99.90;;;;;;5014524;28;20088;-65
2023/10/27 08:04:27;;;;;;;8.93;3.50;;;10.40;99.90;;;;;;5000197;28;20191;-65
2023/10/27 08:06:55;;;;;;;24.65;6.70;;;10.40;99.90;;;;;;5034641;28;20072;-65
2023/10/27 08:09:22;;;;;;;16.25;6.38;;;10.50;99.90;;;;;;5027017;28;20069;-65
2023/10/27 08:11:49;;;;;;;30.85;12.05;;;10.50;99.90;;;;;;5034574;28;20049;-65
2023/10/27 08:14:16;;;;;;;12.93;6.53;;;10.60;99.90;;;;;;5032969;28;20051;-65
2023/10/27 08:16:44;;;;;;;14.93;4.88;;;10.70;99.90;;;;;;5004214;28;20103;-65
2023/10/27 08:19:11;;;;;;;9.57;4.47;;;10.70;99.90;;;;;;5026158;28;20053;-65
2023/10/27 08:21:40;;;;;;;9.27;4.80;;;10.80;99.90;;;;;;5029669;28;20507;-64
2023/10/27 08:24:08;;;;;;;12.60;6.80;;;10.90;99.90;;;;;;5036412;28;20102;-65
2023/10/27 08:26:35;;;;;;;11.15;6.07;;;10.90;99.90;;;;;;5012579;28;20041;-64
2023/10/27 08:29:02;;;;;;;10.07;4.50;;;11.00;99.90;;;;;;5009871;28;20516;-64
2023/10/27 08:31:29;;;;;;;10.80;3.95;;;11.10;99.90;;;;;;5026641;28;20049;-64
2023/10/27 08:33:59;;;;;;;9.48;4.45;;;11.20;99.90;;;;;;5024714;28;20048;-66
2023/10/27 08:36:27;;;;;;;15.05;4.90;;;11.20;99.90;;;;;;5025551;28;20191;-65
2023/10/27 08:38:54;;;;;;;12.98;4.85;;;11.20;99.90;;;;;;5027100;28;20046;-66
2023/10/27 08:41:28;;;;;;;13.02;4.68;;;11.30;99.90;;;;;;5019462;28;20052;-66
2023/10/27 08:43:55;;;;;;;18.88;4.53;;;11.30;99.90;;;;;;5008593;28;20045;-65
2023/10/27 08:46:31;;;;;;;10.52;2.67;;;11.30;99.90;;;;;;5005071;28;20050;-66
2023/10/27 08:48:57;;;;;;;6.30;2.20;;;11.20;99.90;;;;;;5025350;28;20063;-66
2023/10/27 08:51:24;;;;;;;9.85;1.70;;;11.20;99.90;;;;;;5033431;28;20042;-65
2023/10/27 08:53:51;;;;;;;6.10;1.45;;;11.10;99.90;;;;;;4661133;28;9999822;-66
2023/10/27 08:56:18;;;;;;;3.17;1.20;;;11.00;99.90;;;;;;5036750;28;20052;-65
2023/10/27 08:58:50;;;;;;;5.80;1.33;;;11.10;99.90;;;;;;5041195;28;20049;-64
2023/10/27 09:01:17;;;;;;;12.50;4.18;;;11.00;99.90;;;;;;5003142;28;20099;-64
2023/10/27 09:04:06;;;;;;;9.43;1.75;;;11.00;99.90;;;;;;5029037;28;20501;-66
2023/10/27 09:06:34;;;;;;;6.65;1.40;;;11.10;99.90;;;;;;5029949;28;20050;-64
2023/10/27 09:09:02;;;;;;;4.43;1.27;;;11.10;99.90;;;;;;5013431;28;20053;-63
2023/10/27 09:11:29;;;;;;;6.80;1.88;;;11.10;99.90;;;;;;5005157;28;20913;-64
2023/10/27 09:13:59;;;;;;;5.40;1.40;;;11.20;99.90;;;;;;5016257;28;20083;-67
2023/10/27 09:16:27;;;;;;;2.30;1.63;;;11.20;99.90;;;;;;5020582;28;20052;-66
2023/10/27 09:18:55;;;;;;;23.67;5.60;;;11.20;99.90;;;;;;5035046;28;20053;-66
2023/10/27 09:21:32;;;;;;;19.10;3.05;;;11.20;99.90;;;;;;5012656;28;20543;-66
2023/10/27 09:24:02;;;;;;;11.68;2.65;;;11.20;99.90;;;;;;5013007;28;20095;-65
2023/10/27 09:26:46;;;;;;;19.05;4.32;;;11.20;99.90;;;;;;5029121;28;20585;-65
2023/10/27 09:29:13;;;;;;;16.13;4.22;;;11.20;99.90;;;;;;5027563;28;20053;-67
2023/10/27 09:31:40;;;;;;;11.77;3.22;;;11.30;99.90;;;;;;5008360;28;20045;-65
2023/10/27 09:34:17;;;;;;;10.75;2.78;;;11.30;99.90;;;;;;5022107;28;20049;-64
2023/10/27 09:36:45;;;;;;;8.40;3.50;;;11.40;99.90;;;;;;5022451;28;20617;-64
2023/10/27 09:39:32;;;;;;;7.45;2.88;;;11.40;99.90;;;;;;5027364;28;20061;-66
2023/10/27 09:42:03;;;;;;;5.75;2.70;;;11.40;99.90;;;;;;5026675;28;20077;-64
2023/10/27 09:44:48;;;;;;;8.35;3.88;;;11.40;99.90;;;;;;5027795;28;20061;-64
2023/10/27 09:47:22;;;;;;;5.88;3.35;;;11.40;99.90;;;;;;5010220;28;20523;-65
2023/10/27 09:49:51;;;;;;;10.68;4.30;;;11.30;99.90;;;;;;5035727;28;20045;-65
2023/10/27 09:52:20;;;;;;;4.57;2.15;;;11.40;99.90;;;;;;5015923;28;20056;-66
2023/10/27 09:54:48;;;;;;;8.13;3.17;;;11.40;99.90;;;;;;5009378;28;20081;-65
2023/10/27 09:57:15;;;;;;;12.52;2.83;;;11.40;99.90;;;;;;5027061;28;20115;-66
2023/10/27 09:59:42;;;;;;;6.43;1.77;;;11.40;99.90;;;;;;5034218;28;20497;-64
2023/10/27 10:02:10;;;;;;;4.25;2.03;;;11.30;99.90;;;;;;5008287;28;20156;-65
2023/10/27 10:04:57;;;;;;;3.53;1.33;;;11.30;99.90;;;;;;5023740;28;20041;-65
2023/10/27 10:08:14;;;;;;;2.78;1.08;;;11.30;99.90;;;;;;5026561;28;20493;-65
2023/10/27 10:10:33;;;;;;;2.78;1.10;;;11.30;99.90;;;;;;5008423;28;20151;-64
2023/10/27 10:13:17;;;;;;;3.22;1.20;;;11.30;99.90;;;;;;5012673;28;20049;-64
2023/10/27 10:15:45;;;;;;;3.22;1.42;;;11.30;99.90;;;;;;5026551;28;20050;-65
2023/10/27 10:18:21;;;;;;;4.38;0.93;;;11.30;99.90;;;;;;5031572;28;20057;-65
2023/10/27 10:20:47;;;;;;;0.90;0.40;;;11.40;99.90;;;;;;5016963;28;20103;-65
2023/10/27 10:23:15;;;;;;;1.15;0.60;;;11.40;99.90;;;;;;5025510;28;20084;-64
2023/10/27 10:25:55;;;;;;;2.88;1.15;;;11.40;99.90;;;;;;4666020;28;10000500;-64
2023/10/27 10:28:27;;;;;;;3.75;0.75;;;11.40;99.90;;;;;;5040178;28;20099;-64
2023/10/27 10:31:21;;;;;;;1.80;0.70;;;11.50;99.90;;;;;;5011087;28;20051;-64
2023/10/27 10:33:49;;;;;;;2.33;1.30;;;11.60;99.90;;;;;;5005930;28;20053;-64
2023/10/27 10:36:22;;;;;;;5.80;2.30;;;11.70;99.90;;;;;;5000973;28;20061;-64
2023/10/27 10:38:56;;;;;;;2.85;1.25;;;11.70;99.90;;;;;;5028947;28;20049;-63
2023/10/27 10:41:44;;;;;;;4.95;1.27;;;11.80;99.90;;;;;;5039460;28;20144;-66
2023/10/27 10:44:13;;;;;;;5.97;0.98;;;11.90;99.90;;;;;;5034040;28;20151;-63
2023/10/27 10:46:40;;;;;;;4.78;1.08;;;12.00;99.90;;;;;;5030605;28;20048;-65
2023/10/27 10:49:07;;;;;;;2.90;0.80;;;12.10;99.90;;;;;;5026268;28;20059;-64
2023/10/27 10:51:37;;;;;;;1.75;0.65;;;12.10;99.90;;;;;;5008660;28;20052;-64
2023/10/27 10:54:13;;;;;;;7.32;1.00;;;12.10;99.90;;;;;;5010961;28;20419;-66
2023/10/27 10:56:40;;;;;;;4.68;1.30;;;12.10;99.90;;;;;;5025856;28;20484;-63
2023/10/27 10:59:06;;;;;;;4.43;1.27;;;12.20;99.90;;;;;;5006511;28;20046;-64
2023/10/27 11:01:34;;;;;;;1.42;0.80;;;12.20;99.90;;;;;;5007527;28;20049;-64
2023/10/27 11:04:01;;;;;;;3.17;1.00;;;12.20;99.90;;;;;;5031863;28;20071;-65
2023/10/27 11:06:29;;;;;;;4.00;1.10;;;12.20;99.90;;;;;;5035816;28;20053;-64
2023/10/27 11:08:55;;;;;;;3.65;1.30;;;12.20;99.90;;;;;;5014704;28;20041;-64
2023/10/27 11:11:22;;;;;;;2.33;0.73;;;12.30;99.90;;;;;;5030484;28;20055;-64
2023/10/27 11:14:00;;;;;;;1.55;0.82;;;12.30;99.90;;;;;;5008680;28;20060;-63
2023/10/27 11:16:27;;;;;;;3.15;1.20;;;12.40;99.90;;;;;;5005062;28;20058;-65
2023/10/27 11:19:02;;;;;;;4.53;1.33;;;12.40;99.90;;;;;;5032294;28;21180;-62
2023/10/27 11:21:30;;;;;;;3.22;0.90;;;12.50;99.90;;;;;;5016041;28;20102;-64
2023/10/27 11:23:56;;;;;;;2.03;0.73;;;12.60;99.90;;;;;;5036109;28;20053;-65
2023/10/27 11:26:24;;;;;;;4.47;1.13;;;12.70;99.90;;;;;;5024954;28;20049;-65
2023/10/27 11:28:55;;;;;;;5.00;1.13;;;12.70;99.90;;;;;;5025563;28;20057;-64
2023/10/27 11:31:22;;;;;;;1.10;0.50;;;12.80;99.90;;;;;;5031565;28;20132;-65
2023/10/27 11:34:02;;;;;;;3.45;0.80;;;12.80;99.90;;;;;;5037806;28;20053;-64
2023/10/27 11:36:30;;;;;;;2.35;1.10;;;12.90;99.90;;;;;;5023813;28;20506;-65
2023/10/27 11:39:13;;;;;;;3.70;1.02;;;12.90;99.90;;;;;;5033322;28;20041;-65
2023/10/27 11:41:44;;;;;;;2.55;1.23;;;13.00;99.90;;;;;;5010031;28;20051;-64
2023/10/27 11:44:10;;;;;;;2.03;0.90;;;13.00;99.90;;;;;;5017197;28;20103;-63
2023/10/27 11:46:39;;;;;;;2.75;0.80;;;13.10;99.90;;;;;;5029690;28;20049;-63
2023/10/27 11:49:06;;;;;;;4.63;1.30;;;13.10;99.90;;;;;;4998870;28;20148;-64
2023/10/27 11:51:33;;;;;;;2.08;0.73;;;13.20;99.90;;;;;;5020862;28;20037;-64
2023/10/27 11:54:00;;;;;;;2.38;0.90;;;13.20;99.90;;;;;;5020865;28;20045;-64
2023/10/27 11:56:27;;;;;;;1.70;0.77;;;13.20;99.90;;;;;;5031203;28;20493;-65
2023/10/27 11:58:53;;;;;;;2.25;0.73;;;13.40;99.90;;;;;;5021084;28;20049;-64
2023/10/27 12:01:20;;;;;;;1.40;0.75;;;13.40;99.90;;;;;;5025507;28;20053;-64
2023/10/27 12:03:47;;;;;;;6.30;0.73;;;13.40;99.90;;;;;;5036085;28;20163;-64
2023/10/27 12:06:14;;;;;;;2.08;0.80;;;13.40;99.90;;;;;;5035980;28;20053;-64
2023/10/27 12:08:41;;;;;;;1.27;0.55;;;13.40;99.90;;;;;;5029655;28;20107;-64
2023/10/27 12:11:08;;;;;;;1.30;0.60;;;13.40;99.90;;;;;;4996666;28;20108;-64
2023/10/27 12:13:34;;;;;;;5.57;0.90;;;13.50;99.90;;;;;;5014409;28;20053;-63
2023/10/27 12:16:01;;;;;;;2.35;0.70;;;13.50;99.90;;;;;;5034950;28;20057;-65
2023/10/27 12:18:28;;;;;;;2.42;0.93;;;13.50;99.90;;;;;;5024841;28;20049;-66
2023/10/27 12:20:55;;;;;;;2.33;0.52;;;13.60;99.90;;;;;;5033929;28;20085;-63
2023/10/27 12:23:22;;;;;;;2.80;0.60;;;13.60;99.90;;;;;;5028287;28;20045;-64
2023/10/27 12:25:49;;;;;;;3.42;0.82;;;13.60;99.90;;;;;;5030616;28;20053;-64
2023/10/27 12:28:16;;;;;;;3.92;0.77;;;13.50;99.90;;;;;;5025152;28;20045;-64
2023/10/27 12:30:42;;;;;;;4.25;1.15;;;13.60;99.90;;;;;;5034896;28;20423;-64
2023/10/27 12:33:09;;;;;;;3.33;0.70;;;13.70;99.90;;;;;;5025629;28;20076;-65
2023/10/27 12:35:37;;;;;;;1.10;0.57;;;13.80;99.90;;;;;;5022561;28;20514;-67
2023/10/27 12:38:04;;;;;;;4.85;1.10;;;13.80;99.90;;;;;;5007208;28;20426;-64
2023/10/27 12:40:34;;;;;;;1.38;0.57;;;13.90;99.90;;;;;;5024023;28;20136;-65
2023/10/27 12:43:02;;;;;;;3.28;0.60;;;13.90;99.90;;;;;;5029537;28;20429;-66
2023/10/27 12:45:29;;;;;;;6.60;0.95;;;13.90;99.90;;;;;;5009541;28;20140;-67
2023/10/27 12:47:56;;;;;;;3.03;0.68;;;14.00;99.90;;;;;;5028459;28;20049;-66
2023/10/27 12:50:23;;;;;;;2.10;0.70;;;14.20;99.90;;;;;;5026233;28;20548;-65
2023/10/27 12:52:50;;;;;;;1.77;0.80;;;14.20;99.90;;;;;;5026667;28;20099;-65
2023/10/27 12:55:17;;;;;;;5.82;1.27;;;14.20;99.90;;;;;;5022894;28;20049;-64